Time;durP1;ratioP1;P1;durP2;ratioP2;P2;SDS_P1;SDS_P2;PMS_P1;PMS_P2;Temp;Humidity;BMP_temperature;BMP_pressure;BME280_temperature;BME280_humidity;BME280_pressure;Samples;Min_cycle;Max_cycle;Signal;HPM_P1;HPM_P2
2022/04/27 00:02:23;;;;;;;6.53;2.03;;;;;;;12.85;60.21;93838.75;5086511;28;20016;-78
2022/04/27 00:04:49;;;;;;;6.05;1.92;;;;;;;12.81;60.08;93843.19;5086545;28;20020;-78
2022/04/27 00:07:14;;;;;;;5.47;1.65;;;;;;;12.72;60.30;93851.28;5086527;28;20147;-78
2022/04/27 00:09:40;;;;;;;7.78;2.10;;;;;;;12.68;60.42;93845.03;5086314;28;20099;-78
2022/04/27 00:12:06;;;;;;;7.57;2.05;;;;;;;12.62;60.43;93847.09;5086138;28;20039;-78
2022/04/27 00:14:32;;;;;;;4.68;2.42;;;;;;;12.52;60.90;93847.50;5086292;28;20266;-78
2022/04/27 00:16:58;;;;;;;3.97;1.98;;;;;;;12.47;60.62;93845.00;5086439;28;20054;-78
2022/04/27 00:19:25;;;;;;;8.25;2.00;;;;;;;12.40;61.17;93847.41;5086183;28;20016;-78
2022/04/27 00:21:50;;;;;;;5.35;1.90;;;;;;;12.35;61.28;93842.25;5086215;28;20016;-77
2022/04/27 00:24:17;;;;;;;4.90;2.13;;;;;;;12.34;61.31;93846.03;5086285;28;20012;-77
2022/04/27 00:26:43;;;;;;;8.43;2.08;;;;;;;12.27;61.54;93845.75;5086118;28;20058;-77
2022/04/27 00:29:08;;;;;;;5.60;2.83;;;;;;;12.24;61.71;93841.84;5085884;28;20212;-77
2022/04/27 00:31:34;;;;;;;6.45;2.55;;;;;;;12.21;61.86;93845.16;5085939;28;20039;-76
2022/04/27 00:34:00;;;;;;;6.50;2.00;;;;;;;12.16;61.93;93848.81;5085746;28;20028;-77
2022/04/27 00:36:27;;;;;;;5.03;2.00;;;;;;;12.18;61.88;93846.59;5085927;28;20042;-77
2022/04/27 00:38:52;;;;;;;13.88;2.63;;;;;;;12.22;61.58;93852.84;5085773;28;20021;-77
2022/04/27 00:41:18;;;;;;;7.50;2.10;;;;;;;12.18;61.81;93848.47;5086119;28;20314;-77
2022/04/27 00:43:44;;;;;;;6.28;2.20;;;;;;;12.11;62.06;93854.34;5085700;28;20023;-77
2022/04/27 00:46:10;;;;;;;4.68;2.25;;;;;;;12.08;61.97;93848.84;5085785;28;20024;-77
2022/04/27 00:48:44;;;;;;;5.40;2.60;;;;;;;12.04;62.31;93860.16;5085784;28;20024;-77
2022/04/27 00:51:16;;;;;;;9.02;2.30;;;;;;;12.04;62.36;93860.16;5085579;28;20035;-77
2022/04/27 00:53:41;;;;;;;7.00;2.15;;;;;;;12.00;62.20;93861.13;5085506;28;20017;-77
2022/04/27 00:56:07;;;;;;;7.00;2.20;;;;;;;12.00;62.60;93853.13;5067767;28;20100;-77
2022/04/27 00:58:33;;;;;;;6.30;2.45;;;;;;;11.96;62.61;93854.88;5085470;28;20322;-77
2022/04/27 01:00:59;;;;;;;4.03;2.22;;;;;;;11.96;62.52;93852.97;5084368;28;20099;-77
2022/04/27 01:03:25;;;;;;;12.10;2.97;;;;;;;11.95;62.75;93864.00;5085334;28;20020;-77
2022/04/27 01:05:51;;;;;;;7.28;2.47;;;;;;;11.91;62.73;93855.06;5085383;28;20096;-77
2022/04/27 01:08:21;;;;;;;6.47;2.20;;;;;;;11.91;63.00;93860.41;5085605;28;20016;-77
2022/04/27 01:10:47;;;;;;;11.05;2.25;;;;;;;11.89;62.78;93863.41;5085397;28;20372;-77
2022/04/27 01:13:13;;;;;;;5.20;2.22;;;;;;;11.84;63.13;93850.19;5085142;28;20271;-77
2022/04/27 01:15:39;;;;;;;4.70;2.00;;;;;;;11.79;63.20;93850.38;5085104;28;20035;-77
2022/04/27 01:18:07;;;;;;;5.97;2.42;;;;;;;11.69;63.37;93853.38;5085017;28;20020;-77
2022/04/27 01:20:44;;;;;;;6.15;2.70;;;;;;;11.68;63.52;93857.94;5085038;28;20032;-76
2022/04/27 01:23:13;;;;;;;8.65;2.28;;;;;;;11.63;63.61;93855.44;5084848;28;20099;-76
2022/04/27 01:25:54;;;;;;;4.35;2.30;;;;;;;11.61;63.55;93858.44;5084944;28;20027;-76
2022/04/27 01:28:22;;;;;;;4.75;2.10;;;;;;;11.59;63.57;93863.31;5084862;28;20049;-76
2022/04/27 01:30:55;;;;;;;5.28;2.40;;;;;;;11.52;64.02;93865.69;5085000;28;20095;-76
2022/04/27 01:33:21;;;;;;;4.65;2.78;;;;;;;11.44;64.19;93858.50;5084734;28;20039;-76
2022/04/27 01:35:46;;;;;;;9.77;2.65;;;;;;;11.43;64.22;93851.56;5084734;28;20047;-76
2022/04/27 01:38:11;;;;;;;6.60;2.58;;;;;;;11.42;64.21;93853.47;5084694;28;20095;-76
2022/04/27 01:40:37;;;;;;;6.22;3.75;;;;;;;11.36;64.58;93856.63;5084443;28;20032;-76
2022/04/27 01:43:03;;;;;;;4.38;2.50;;;;;;;11.35;64.59;93858.50;5084813;28;20016;-76
2022/04/27 01:45:29;;;;;;;6.18;3.22;;;;;;;11.27;64.80;93845.94;5084613;28;20030;-76
2022/04/27 01:47:54;;;;;;;11.15;3.00;;;;;;;11.25;64.96;93850.81;5084358;28;20016;-76
2022/04/27 01:50:22;;;;;;;4.90;2.53;;;;;;;11.23;64.94;93858.34;5084621;28;20027;-77
2022/04/27 01:55:32;;;;;;;8.85;2.53;;;;;;;11.21;64.87;93850.69;5084402;28;20035;-77
2022/04/27 01:57:58;;;;;;;10.77;2.22;;;;;;;11.19;64.98;93857.44;5084166;28;20020;-77
2022/04/27 02:00:24;;;;;;;6.13;2.90;;;;;;;11.19;65.27;93860.09;5084217;28;20016;-77
2022/04/27 02:02:49;;;;;;;5.57;2.55;;;;;;;11.14;65.48;93845.03;5084361;28;20032;-75
2022/04/27 02:05:15;;;;;;;11.10;3.78;;;;;;;11.13;65.49;93848.03;5066235;28;20095;-74
2022/04/27 02:07:40;;;;;;;6.32;2.35;;;;;;;11.13;65.34;93848.03;5083861;28;20048;-74
2022/04/27 02:10:06;;;;;;;8.90;2.25;;;;;;;11.06;65.54;93837.06;5083460;28;20066;-73
2022/04/27 02:12:32;;;;;;;10.43;2.65;;;;;;;10.99;65.96;93833.00;5066009;28;20027;-74
2022/04/27 02:14:58;;;;;;;5.63;2.97;;;;;;;11.00;66.02;93839.88;5083816;28;20024;-75
2022/04/27 02:17:24;;;;;;;7.45;2.80;;;;;;;10.99;66.16;93846.31;5083148;28;20099;-75
2022/04/27 02:19:49;;;;;;;7.63;3.03;;;;;;;10.98;66.05;93836.75;5083642;28;20319;-75
2022/04/27 02:22:15;;;;;;;6.70;2.63;;;;;;;10.99;66.00;93846.31;5083401;28;20055;-77
2022/04/27 02:24:40;;;;;;;7.20;3.03;;;;;;;10.99;66.46;93842.84;5083669;28;20214;-76
2022/04/27 02:27:06;;;;;;;7.43;2.67;;;;;;;10.98;66.43;93842.06;5083474;28;20044;-76
2022/04/27 02:29:31;;;;;;;13.13;3.47;;;;;;;10.95;66.04;93836.59;5083446;28;20040;-77
2022/04/27 02:31:56;;;;;;;9.85;3.05;;;;;;;10.95;66.91;93836.59;5083336;28;20065;-76
2022/04/27 02:34:22;;;;;;;6.32;3.35;;;;;;;10.94;67.05;93846.47;5083282;28;20093;-76
2022/04/27 02:36:47;;;;;;;9.43;3.13;;;;;;;10.92;67.07;93847.91;5083697;28;20043;-76
2022/04/27 02:39:13;;;;;;;5.63;3.35;;;;;;;10.89;67.15;93854.66;5083504;28;20052;-76
2022/04/27 02:41:38;;;;;;;7.28;3.60;;;;;;;10.88;67.04;93853.06;5083584;28;20029;-76
2022/04/27 02:44:04;;;;;;;7.85;2.60;;;;;;;10.83;66.98;93848.69;5083624;28;20016;-76
2022/04/27 02:46:29;;;;;;;7.68;2.90;;;;;;;10.82;66.88;93846.31;5083503;28;20040;-77
2022/04/27 02:51:51;;;;;;;6.40;2.95;;;;;;;10.82;66.96;93857.00;5083556;28;20031;-76
2022/04/27 02:54:22;;;;;;;6.80;3.08;;;;;;;10.78;67.31;93848.06;5065716;28;20112;-79
2022/04/27 02:56:48;;;;;;;6.57;2.63;;;;;;;10.78;67.24;93842.72;5083319;28;20091;-82
2022/04/27 02:59:14;;;;;;;7.50;2.83;;;;;;;10.75;67.56;93840.69;5083319;28;20047;-78
2022/04/27 03:01:40;;;;;;;11.43;3.78;;;;;;;10.75;67.80;93846.81;5083207;28;20311;-78
2022/04/27 03:04:07;;;;;;;9.90;3.67;;;;;;;10.71;67.79;93848.53;5083307;28;20032;-78
2022/04/27 03:06:32;;;;;;;10.88;3.30;;;;;;;10.63;67.86;93836.75;5083547;28;20233;-78
2022/04/27 03:08:58;;;;;;;6.90;3.47;;;;;;;10.67;67.81;93844.91;5065409;28;20036;-77
2022/04/27 03:11:23;;;;;;;10.75;3.33;;;;;;;10.62;67.82;93845.88;5083479;28;20306;-77
2022/04/27 03:13:49;;;;;;;7.60;3.35;;;;;;;10.61;67.59;93848.84;5083302;28;20052;-77
2022/04/27 03:16:14;;;;;;;6.53;3.17;;;;;;;10.61;67.69;93846.94;5083304;28;20068;-77
2022/04/27 03:18:40;;;;;;;10.20;3.35;;;;;;;10.57;67.66;93851.34;5082930;28;20035;-77
2022/04/27 03:21:05;;;;;;;5.32;3.20;;;;;;;10.56;67.87;93856.97;5082937;28;20024;-77
2022/04/27 03:23:31;;;;;;;10.13;3.53;;;;;;;10.51;67.84;93865.13;5083103;28;20092;-76
2022/04/27 03:25:56;;;;;;;7.35;2.92;;;;;;;10.48;67.91;93866.53;5082989;28;20024;-77
2022/04/27 03:28:22;;;;;;;5.20;3.22;;;;;;;10.39;68.06;93857.75;5082445;28;20048;-77
2022/04/27 03:30:50;;;;;;;12.27;3.65;;;;;;;10.35;67.72;93867.47;5082879;28;20064;-77
2022/04/27 03:33:17;;;;;;;9.65;3.83;;;;;;;10.37;67.95;93867.94;5083026;28;20028;-77
2022/04/27 03:35:42;;;;;;;8.93;4.10;;;;;;;10.39;67.63;93873.72;5082919;28;20044;-77
2022/04/27 03:38:09;;;;;;;8.07;3.28;;;;;;;10.41;67.86;93877.66;5083180;28;20025;-78
2022/04/27 03:40:35;;;;;;;7.38;3.50;;;;;;;10.38;67.93;93869.47;5082908;28;20077;-77
2022/04/27 03:43:01;;;;;;;9.77;3.72;;;;;;;10.36;68.22;93872.47;5082483;28;20028;-77
2022/04/27 03:45:26;;;;;;;9.70;3.90;;;;;;;10.38;68.59;93874.81;5083046;28;20242;-77
2022/04/27 03:47:52;;;;;;;8.45;3.20;;;;;;;10.34;68.79;93876.53;5083037;28;20365;-77
2022/04/27 03:50:18;;;;;;;8.60;3.63;;;;;;;10.28;68.76;93883.06;5082840;28;20028;-77
2022/04/27 03:52:43;;;;;;;11.40;3.85;;;;;;;10.36;69.01;93885.81;5082774;28;20025;-77
2022/04/27 03:55:10;;;;;;;8.70;3.67;;;;;;;10.33;68.90;93885.63;5082683;28;20028;-77
2022/04/27 03:57:37;;;;;;;7.88;4.00;;;;;;;10.31;68.93;93887.81;5082746;28;20028;-77
2022/04/27 04:00:03;;;;;;;12.98;4.80;;;;;;;10.36;69.33;93890.31;5082778;28;20028;-77
2022/04/27 04:02:29;;;;;;;9.13;3.92;;;;;;;10.34;69.33;93890.66;5082634;28;20042;-77
2022/04/27 04:04:54;;;;;;;9.10;3.33;;;;;;;10.41;69.25;93901.63;5082779;28;20029;-78
2022/04/27 04:07:20;;;;;;;13.18;3.20;;;;;;;10.48;69.10;93895.84;5082773;28;20027;-78
2022/04/27 04:09:45;;;;;;;8.52;3.20;;;;;;;10.57;69.00;93898.53;5082605;28;20091;-78
2022/04/27 04:12:11;;;;;;;8.38;3.40;;;;;;;10.64;69.13;93906.84;5082694;28;20039;-78
2022/04/27 04:14:36;;;;;;;16.10;3.63;;;;;;;10.68;69.30;93912.34;5082449;28;20028;-77
2022/04/27 04:17:02;;;;;;;11.52;3.88;;;;;;;10.74;69.48;93908.44;5082499;28;20025;-77
2022/04/27 04:19:28;;;;;;;8.35;3.47;;;;;;;10.81;69.40;93909.53;5081971;28;20024;-78
2022/04/27 04:21:54;;;;;;;11.93;4.68;;;;;;;10.88;69.50;93921.63;5082441;28;20062;-77
2022/04/27 04:24:19;;;;;;;6.32;3.60;;;;;;;10.89;69.53;93907.97;5082358;28;20319;-79
2022/04/27 04:29:31;;;;;;;6.40;3.38;;;;;;;10.97;70.19;93917.88;5082435;28;20047;-78
2022/04/27 04:31:57;;;;;;;10.80;4.88;;;;;;;11.01;70.18;93913.47;5082243;28;20032;-76
2022/04/27 04:34:22;;;;;;;9.32;3.60;;;;;;;11.06;70.41;93917.84;5082395;28;20039;-76
2022/04/27 04:36:48;;;;;;;14.65;6.03;;;;;;;11.10;70.63;93926.03;5082126;28;20360;-78
2022/04/27 04:39:13;;;;;;;20.65;5.13;;;;;;;11.09;70.39;93927.09;5082752;28;20024;-78
2022/04/27 04:41:38;;;;;;;11.38;4.65;;;;;;;11.11;69.86;93930.25;5086031;28;20350;-77
2022/04/27 04:44:04;;;;;;;16.80;4.65;;;;;;;11.09;69.90;93932.44;5085932;28;20021;-77
2022/04/27 04:46:29;;;;;;;14.93;4.10;;;;;;;11.07;69.75;93929.31;5085813;28;20292;-77
2022/04/27 04:48:55;;;;;;;15.57;4.15;;;;;;;11.10;69.68;93936.69;5086121;28;20315;-77
2022/04/27 04:51:20;;;;;;;15.63;4.50;;;;;;;11.09;69.76;93927.09;5086011;28;20043;-77
2022/04/27 04:53:46;;;;;;;11.25;4.72;;;;;;;11.09;69.60;93940.44;5085705;28;20090;-78
2022/04/27 04:56:11;;;;;;;13.10;4.80;;;;;;;11.14;69.54;93945.63;5085603;28;20028;-78
2022/04/27 04:58:36;;;;;;;13.90;6.60;;;;;;;11.15;69.62;93941.84;5085660;28;20027;-77
2022/04/27 05:01:03;;;;;;;14.52;5.40;;;;;;;11.21;69.94;93953.94;5085565;28;20345;-77
2022/04/27 05:03:30;;;;;;;13.73;5.60;;;;;;;11.28;69.85;93940.91;5085526;28;20069;-76
2022/04/27 05:05:55;;;;;;;11.57;5.13;;;;;;;11.36;69.30;93944.69;5085610;28;20089;-77
2022/04/27 05:08:20;;;;;;;16.80;5.38;;;;;;;11.39;69.24;93958.16;5085287;28;20032;-77
2022/04/27 05:10:46;;;;;;;21.90;5.78;;;;;;;11.44;69.28;93949.22;5067501;28;20319;-78
2022/04/27 05:13:12;;;;;;;21.15;5.60;;;;;;;11.45;69.41;93951.56;5085332;28;20028;-78
2022/04/27 05:15:37;;;;;;;20.20;6.30;;;;;;;11.51;69.03;93951.41;5085351;28;20200;-77
2022/04/27 05:18:03;;;;;;;26.98;6.32;;;;;;;11.55;69.19;93947.00;5085282;28;20048;-77
2022/04/27 05:20:28;;;;;;;21.35;6.28;;;;;;;11.61;69.16;93948.41;5085301;28;20028;-77
2022/04/27 05:22:54;;;;;;;13.63;5.93;;;;;;;11.65;69.39;93944.00;5085090;28;20032;-78
2022/04/27 05:25:19;;;;;;;10.82;5.30;;;;;;;11.75;69.11;93943.69;5084520;28;20066;-78
2022/04/27 05:27:45;;;;;;;12.27;6.30;;;;;;;11.87;68.95;93944.91;5084944;28;20024;-77
2022/04/27 05:32:55;;;;;;;21.52;6.57;;;;;;;12.01;68.94;93943.63;5085141;28;20096;-78
2022/04/27 05:35:21;;;;;;;10.73;4.93;;;;;;;12.10;67.82;93943.59;5084812;28;20027;-78
2022/04/27 05:37:47;;;;;;;16.00;5.53;;;;;;;12.17;67.86;93943.91;5084723;28;20086;-78
2022/04/27 05:40:13;;;;;;;15.43;5.53;;;;;;;12.23;67.51;93947.16;5084624;28;20066;-77
2022/04/27 05:42:39;;;;;;;13.82;5.88;;;;;;;12.38;67.03;93949.31;5084492;28;20077;-77
2022/04/27 05:45:06;;;;;;;10.45;5.00;;;;;;;12.43;67.01;93940.31;5084262;28;20020;-77
2022/04/27 05:47:31;;;;;;;14.10;4.72;;;;;;;12.51;66.44;93958.19;5084182;28;20024;-78
2022/04/27 05:49:57;;;;;;;21.02;5.93;;;;;;;12.58;65.71;93947.78;5084555;28;20051;-79
2022/04/27 05:52:22;;;;;;;18.75;7.70;;;;;;;12.68;65.39;93954.66;5083559;28;20040;-80
2022/04/27 05:54:48;;;;;;;13.05;5.07;;;;;;;12.74;65.59;93945.34;5084317;28;20035;-80
2022/04/27 05:57:14;;;;;;;16.15;5.85;;;;;;;12.81;65.12;93947.50;5066686;28;20227;-79
2022/04/27 05:59:39;;;;;;;11.18;5.20;;;;;;;12.85;65.41;93954.56;5083913;28;20048;-79
2022/04/27 06:02:05;;;;;;;21.52;5.25;;;;;;;12.93;65.09;93944.91;5083723;28;20028;-78
2022/04/27 06:04:30;;;;;;;15.98;5.05;;;;;;;13.00;64.87;93947.84;5083692;28;20024;-78
2022/04/27 06:06:56;;;;;;;17.73;5.85;;;;;;;13.10;64.72;93954.69;5083772;28;20046;-78
2022/04/27 06:09:21;;;;;;;12.35;5.55;;;;;;;13.09;65.02;93955.00;5083692;28;20040;-78
2022/04/27 06:11:47;;;;;;;10.32;5.18;;;;;;;13.20;64.65;93954.31;5083537;28;20219;-78
2022/04/27 06:14:13;;;;;;;14.07;5.57;;;;;;;13.31;63.95;93951.25;5083510;28;20028;-78
2022/04/27 06:16:38;;;;;;;18.73;6.57;;;;;;;13.38;63.90;93959.56;5083693;28;20075;-79
2022/04/27 06:19:04;;;;;;;12.18;5.60;;;;;;;13.47;63.88;93960.25;5083892;28;20024;-82
2022/04/27 06:21:33;;;;;;;18.80;5.13;;;;;;;13.50;63.86;93958.84;5082837;28;20032;-82
2022/04/27 06:24:00;;;;;;;14.40;6.25;;;;;;;13.56;63.98;93962.88;5083747;28;20024;-82
2022/04/27 06:26:26;;;;;;;15.60;6.22;;;;;;;13.65;63.78;93952.84;5083956;28;20319;-79
2022/04/27 06:28:54;;;;;;;11.90;5.97;;;;;;;13.70;63.62;93958.03;5083276;28;20076;-78
2022/04/27 06:31:20;;;;;;;25.65;5.57;;;;;;;13.77;63.14;93952.88;5082453;28;20038;-78
2022/04/27 06:33:45;;;;;;;15.00;5.40;;;;;;;13.82;62.96;93954.59;5083256;28;20044;-78
2022/04/27 06:36:11;;;;;;;14.95;6.38;;;;;;;13.92;62.21;93954.19;5083409;28;20024;-80
2022/04/27 06:38:37;;;;;;;12.13;5.82;;;;;;;14.01;61.88;93951.41;5083398;28;20017;-80
2022/04/27 06:41:05;;;;;;;16.50;6.20;;;;;;;13.97;62.18;93956.63;5083412;28;20115;-81
2022/04/27 06:43:31;;;;;;;8.63;5.65;;;;;;;14.02;62.11;93952.94;5083205;28;20034;-80
2022/04/27 06:45:59;;;;;;;20.50;5.82;;;;;;;14.06;62.14;93951.19;5083632;28;20036;-81
2022/04/27 06:48:24;;;;;;;16.88;6.93;;;;;;;14.18;61.75;93955.78;5083211;28;20031;-84
2022/04/27 06:50:50;;;;;;;9.98;5.65;;;;;;;14.21;61.52;93955.91;5083491;28;20023;-82
2022/04/27 06:53:16;;;;;;;16.83;5.90;;;;;;;14.31;61.28;93961.94;5083410;28;20012;-80
2022/04/27 06:55:41;;;;;;;16.70;6.82;;;;;;;14.36;61.08;93945.63;5083070;28;20036;-79
2022/04/27 06:58:07;;;;;;;19.55;6.18;;;;;;;14.42;60.88;93955.03;5083153;28;20229;-78
2022/04/27 07:00:32;;;;;;;13.07;5.57;;;;;;;14.53;60.82;93952.69;5083305;28;20318;-81
2022/04/27 07:02:58;;;;;;;15.20;6.38;;;;;;;14.57;60.42;93946.34;5083089;28;20096;-81
2022/04/27 07:05:25;;;;;;;16.13;5.65;;;;;;;14.72;60.36;93958.31;5083026;28;20012;-78
2022/04/27 07:07:51;;;;;;;12.90;5.90;;;;;;;14.81;59.62;93950.13;5083060;28;20032;-78
2022/04/27 07:10:17;;;;;;;17.27;5.32;;;;;;;14.90;59.48;93953.47;5083230;28;20031;-81
2022/04/27 07:12:43;;;;;;;19.08;5.88;;;;;;;14.92;58.99;93953.94;5082741;28;20024;-81
2022/04/27 07:15:09;;;;;;;11.35;5.72;;;;;;;14.91;59.19;93946.97;5082950;28;20028;-80
2022/04/27 07:17:34;;;;;;;12.80;5.53;;;;;;;14.91;59.01;93955.03;5064898;28;20032;-81
2022/04/27 07:20:00;;;;;;;17.60;6.20;;;;;;;15.02;58.68;93958.84;5083187;28;20099;-80
2022/04/27 07:22:25;;;;;;;16.27;6.47;;;;;;;15.08;58.57;93951.31;5083165;28;20028;-80
2022/04/27 07:24:51;;;;;;;19.02;6.20;;;;;;;15.17;58.23;93949.28;5065169;28;20017;-80
2022/04/27 07:27:17;;;;;;;12.05;5.82;;;;;;;15.22;58.11;93951.75;5082792;28;20020;-81
2022/04/27 07:29:43;;;;;;;16.52;6.05;;;;;;;15.38;57.96;93954.47;5082654;28;20231;-82
2022/04/27 07:32:08;;;;;;;15.85;5.88;;;;;;;15.50;57.94;93955.56;5082810;28;20032;-81
2022/04/27 07:34:34;;;;;;;20.95;6.43;;;;;;;15.64;56.89;93961.34;5082784;28;20071;-80
2022/04/27 07:37:01;;;;;;;15.88;6.57;;;;;;;15.52;57.09;93956.00;5082981;28;20026;-81
2022/04/27 07:39:27;;;;;;;21.38;6.07;;;;;;;15.62;56.63;93950.16;5064974;28;20020;-81
2022/04/27 07:41:53;;;;;;;18.15;6.95;;;;;;;15.73;56.54;93962.00;5083020;28;20020;-82
2022/04/27 07:44:18;;;;;;;17.45;6.43;;;;;;;15.82;56.51;93962.63;5082881;28;20023;-84
2022/04/27 07:46:47;;;;;;;21.70;6.20;;;;;;;15.94;56.53;93961.03;5082951;28;20027;-83
2022/04/27 07:49:20;;;;;;;10.25;5.00;;;;;;;15.99;56.59;93947.31;5082512;28;20028;-81
2022/04/27 07:51:46;;;;;;;16.42;5.22;;;;;;;16.11;56.55;93955.31;5082907;28;20067;-82
2022/04/27 07:54:12;;;;;;;13.40;5.50;;;;;;;16.27;55.86;93952.63;5082799;28;20257;-85
2022/04/27 07:56:38;;;;;;;9.48;5.47;;;;;;;16.40;55.37;93950.63;5082534;28;20048;-84
2022/04/27 07:59:03;;;;;;;11.23;5.88;;;;;;;16.56;55.08;93943.34;5082686;28;20028;-84
2022/04/27 08:01:29;;;;;;;18.65;4.97;;;;;;;16.70;54.69;93952.88;5082505;28;20024;-86
2022/04/27 08:03:54;;;;;;;16.65;5.93;;;;;;;16.83;54.38;93948.97;5082626;28;20083;-83
2022/04/27 08:06:19;;;;;;;15.68;5.15;;;;;;;16.83;53.44;93948.97;5082553;28;20273;-82
2022/04/27 08:08:45;;;;;;;19.17;6.93;;;;;;;16.82;53.61;93950.13;5082568;28;20024;-83
2022/04/27 08:11:13;;;;;;;11.88;5.25;;;;;;;16.87;53.17;93946.38;5082526;28;20044;-81
2022/04/27 08:13:38;;;;;;;15.50;5.80;;;;;;;16.97;53.16;93940.44;5082351;28;20032;-83
2022/04/27 08:16:04;;;;;;;14.35;5.15;;;;;;;17.06;52.17;93938.34;5085544;28;20029;-80
2022/04/27 08:18:29;;;;;;;12.20;4.97;;;;;;;17.13;52.41;93938.50;5086623;28;20028;-80
2022/04/27 08:23:40;;;;;;;11.32;5.10;;;;;;;17.45;50.98;93944.56;5085893;28;20353;-81
2022/04/27 08:26:06;;;;;;;13.23;4.38;;;;;;;17.51;50.49;93934.28;5086051;28;20020;-80
2022/04/27 08:28:32;;;;;;;10.38;4.28;;;;;;;17.62;50.05;93931.78;5085879;28;20056;-79
2022/04/27 08:30:59;;;;;;;8.35;3.70;;;;;;;17.79;49.23;93931.34;5086200;28;20290;-82
2022/04/27 08:33:25;;;;;;;16.20;5.10;;;;;;;17.88;48.46;93933.06;5085865;28;20029;-81
2022/04/27 08:35:51;;;;;;;12.73;4.38;;;;;;;18.01;48.02;93932.56;5085868;28;20397;-83
2022/04/27 08:38:16;;;;;;;10.45;4.07;;;;;;;18.10;48.88;93929.63;5085935;28;20024;-80
2022/04/27 08:40:44;;;;;;;7.93;4.03;;;;;;;18.15;47.96;93928.53;5085672;28;20223;-81
2022/04/27 08:43:10;;;;;;;11.82;4.43;;;;;;;18.15;48.52;93942.03;5085504;28;20039;-78
2022/04/27 08:45:37;;;;;;;18.27;4.60;;;;;;;18.20;47.69;93928.25;5085743;28;20028;-82
2022/04/27 08:48:03;;;;;;;14.75;4.40;;;;;;;18.27;48.08;93930.28;5085989;28;20027;-80
2022/04/27 08:50:29;;;;;;;11.38;4.10;;;;;;;18.23;47.99;93914.81;5085924;28;20031;-82
2022/04/27 08:52:55;;;;;;;11.15;3.88;;;;;;;18.28;47.48;93915.66;5085466;28;20218;-83
2022/04/27 08:55:21;;;;;;;11.13;4.03;;;;;;;18.29;46.99;93919.91;5085339;28;20401;-79
2022/04/27 08:57:48;;;;;;;11.15;3.80;;;;;;;18.38;47.00;93915.06;5085179;28;20091;-80
2022/04/27 09:00:16;;;;;;;11.50;3.70;;;;;;;18.47;47.30;93910.19;5085250;28;20027;-80
2022/04/27 09:02:42;;;;;;;24.15;3.13;;;;;;;18.61;45.58;93913.09;5085552;28;20334;-81
2022/04/27 09:05:18;;;;;;;9.20;3.17;;;;;;;18.80;44.98;93914.19;5085715;28;20272;-82
2022/04/27 09:07:46;;;;;;;16.33;3.45;;;;;;;18.92;44.75;93905.88;5085426;28;20091;-80
2022/04/27 09:10:16;;;;;;;18.30;3.38;;;;;;;18.93;45.90;93902.03;5085288;28;20096;-86
2022/04/27 09:12:46;;;;;;;6.90;3.38;;;;;;;19.02;44.89;93901.75;5085354;28;20023;-82
2022/04/27 09:15:13;;;;;;;11.02;3.33;;;;;;;19.08;44.69;93907.63;5085061;28;20218;-80
2022/04/27 09:23:28;;;;;;;16.20;3.17;;;;;;;19.33;41.88;93897.91;5085298;28;20023;-80
2022/04/27 09:25:55;;;;;;;9.60;3.83;;;;;;;19.45;41.17;93892.25;5084421;28;20276;-82
2022/04/27 09:28:30;;;;;;;10.60;2.95;;;;;;;19.52;40.21;93896.19;5084983;28;20074;-81
2022/04/27 09:30:56;;;;;;;9.13;2.85;;;;;;;19.58;40.70;93890.13;5085395;28;20024;-82
2022/04/27 09:33:35;;;;;;;8.68;2.97;;;;;;;19.69;39.54;93890.22;5085043;28;20388;-78
2022/04/27 09:36:02;;;;;;;10.43;4.15;;;;;;;19.73;41.52;93896.47;5084942;28;20032;-78
2022/04/27 09:38:39;;;;;;;8.65;2.85;;;;;;;19.87;41.25;93889.69;5085080;28;20016;-80
2022/04/27 09:41:04;;;;;;;8.05;3.10;;;;;;;19.95;39.96;93891.31;5084979;28;20031;-81
2022/04/27 09:43:43;;;;;;;8.10;3.67;;;;;;;19.88;39.28;93891.22;5084733;28;20020;-78
2022/04/27 09:46:28;;;;;;;20.67;3.75;;;;;;;19.94;39.45;93879.69;5085662;28;20029;-83
2022/04/27 09:49:08;;;;;;;7.97;4.30;;;;;;;20.04;40.48;93883.66;5084258;28;20040;-81
2022/04/27 09:51:44;;;;;;;6.72;2.95;;;;;;;20.18;41.15;93872.19;5084292;28;20035;-78
2022/04/27 09:54:12;;;;;;;9.18;2.60;;;;;;;20.31;39.46;93870.72;5084351;28;20021;-78
2022/04/27 09:56:38;;;;;;;7.20;2.80;;;;;;;20.43;39.98;93873.19;5084145;28;20032;-81
2022/04/27 09:59:08;;;;;;;11.77;3.08;;;;;;;20.68;40.28;93874.50;5084220;28;20299;-79
2022/04/27 10:01:35;;;;;;;10.35;3.08;;;;;;;20.93;39.58;93869.28;5084380;28;20020;-78
2022/04/27 10:04:04;;;;;;;14.35;3.70;;;;;;;21.10;38.60;93873.22;5084169;28;20044;-78
2022/04/27 10:06:34;;;;;;;9.88;3.38;;;;;;;21.24;38.20;93876.00;5084338;28;20025;-79
2022/04/27 10:09:01;;;;;;;8.90;2.75;;;;;;;21.39;37.65;93872.22;5084222;28;20200;-79
2022/04/27 10:11:29;;;;;;;12.07;2.88;;;;;;;21.53;38.16;93866.06;5066470;28;20034;-79
2022/04/27 10:13:55;;;;;;;12.43;4.13;;;;;;;21.72;37.15;93862.28;5084154;28;20035;-79
2022/04/27 10:16:24;;;;;;;6.57;3.28;;;;;;;21.81;36.70;93859.19;5084244;28;20020;-79
2022/04/27 10:18:51;;;;;;;18.38;3.50;;;;;;;21.77;36.89;93859.16;5083848;28;20092;-78
2022/04/27 10:21:39;;;;;;;7.38;3.25;;;;;;;21.93;36.86;93866.97;5083586;28;20031;-78
2022/04/27 10:24:08;;;;;;;13.25;2.75;;;;;;;21.91;35.87;93858.44;5084020;28;20017;-78
2022/04/27 10:26:34;;;;;;;13.93;2.80;;;;;;;21.94;35.37;93857.66;5083938;28;20017;-80
2022/04/27 10:29:02;;;;;;;12.63;2.63;;;;;;;22.00;36.08;93848.00;5084257;28;20138;-80
2022/04/27 10:31:40;;;;;;;8.45;2.75;;;;;;;22.20;35.66;93861.94;5083681;28;20028;-80
2022/04/27 10:34:17;;;;;;;10.85;2.78;;;;;;;22.24;36.03;93853.84;5083982;28;20034;-78
2022/04/27 10:36:43;;;;;;;8.52;4.05;;;;;;;22.26;36.86;93842.59;5084799;28;20020;-81
2022/04/27 10:39:09;;;;;;;32.20;5.45;;;;;;;22.43;36.05;93849.97;5083632;28;20020;-78
2022/04/27 10:41:35;;;;;;;7.80;3.38;;;;;;;22.57;34.50;93835.59;5083601;28;20310;-78
2022/04/27 10:44:01;;;;;;;12.93;2.47;;;;;;;22.62;34.59;93841.41;5083668;28;20275;-78
2022/04/27 10:46:38;;;;;;;16.08;3.42;;;;;;;22.65;34.52;93834.41;5083604;28;20032;-77
2022/04/27 10:49:36;;;;;;;15.80;3.17;;;;;;;22.81;35.23;93836.72;5083639;28;20024;-78
2022/04/27 10:52:04;;;;;;;56.08;7.40;;;;;;;22.80;35.23;93827.03;5072059;28;20339;-80
2022/04/27 10:54:31;;;;;;;7.50;2.55;;;;;;;22.57;34.54;93824.72;5083327;28;20020;-78
2022/04/27 10:57:15;;;;;;;20.95;3.40;;;;;;;22.66;34.98;93827.06;5065678;28;20066;-78
2022/04/27 10:59:59;;;;;;;14.57;4.10;;;;;;;22.66;34.39;93822.41;5083503;28;20271;-78
2022/04/27 11:02:38;;;;;;;13.98;3.42;;;;;;;22.80;35.67;93818.88;5065215;28;20077;-78
2022/04/27 11:05:05;;;;;;;7.85;2.90;;;;;;;22.94;34.59;93807.19;5065295;28;20017;-77
2022/04/27 11:07:51;;;;;;;16.60;2.85;;;;;;;23.01;34.65;93796.28;5083311;28;20016;-81
2022/04/27 11:10:17;;;;;;;9.18;2.40;;;;;;;23.18;34.27;93805.56;5083251;28;20036;-78
2022/04/27 11:12:46;;;;;;;6.75;2.30;;;;;;;23.31;32.59;93806.69;5081932;28;20029;-79
2022/04/27 11:15:16;;;;;;;84.88;10.02;;;;;;;23.46;33.29;93801.19;5082676;28;20029;-79
2022/04/27 11:17:41;;;;;;;9.68;3.08;;;;;;;23.57;33.05;93801.88;5082920;28;20016;-79
2022/04/27 11:20:34;;;;;;;12.00;2.67;;;;;;;23.73;33.97;93793.25;5082986;28;20372;-79
2022/04/27 11:23:03;;;;;;;8.18;2.08;;;;;;;23.85;34.53;93789.31;5082902;28;20028;-78
2022/04/27 11:25:31;;;;;;;16.00;2.58;;;;;;;23.99;33.02;93791.94;5081818;28;20429;-79
2022/04/27 11:28:00;;;;;;;8.57;1.80;;;;;;;24.00;33.22;93786.09;5080741;28;20051;-79
2022/04/27 11:30:28;;;;;;;10.27;1.88;;;;;;;24.11;33.01;93774.34;5080957;28;20020;-79
2022/04/27 11:32:54;;;;;;;12.57;2.53;;;;;;;24.31;32.67;93778.06;5081208;28;20031;-79
2022/04/27 11:35:23;;;;;;;6.10;2.78;;;;;;;24.44;32.81;93778.34;5080889;28;20156;-78
2022/04/27 11:37:55;;;;;;;11.80;2.63;;;;;;;24.59;32.65;93774.34;5080877;28;20020;-79
2022/04/27 11:40:27;;;;;;;7.30;2.22;;;;;;;24.80;32.57;93758.94;5081811;28;20050;-80
2022/04/27 11:42:53;;;;;;;14.55;2.20;;;;;;;24.96;31.89;93761.88;5082706;28;20185;-79
2022/04/27 11:45:24;;;;;;;5.72;2.90;;;;;;;25.14;31.99;93760.91;5082653;28;20357;-79
2022/04/27 11:48:16;;;;;;;6.50;1.65;;;;;;;25.30;30.87;93763.84;5082676;28;20024;-79
2022/04/27 11:50:42;;;;;;;7.78;1.85;;;;;;;25.41;31.26;93769.91;5084347;28;20033;-79